Huvudsida
METAR-TAF:

METAR-TAF

Flygplatser :

Tjeljabinsk, Ryssland

latitud: 55-10N, longitud: 061-24E, höjd: 234 m

Aktuellt väderrapport

Denna rapport gjordes för 27 minuter sedan, klockan 14:30 UTC
Vind 8 kt från nord, varierande mellan nordväst och nord/nordost
Temperatur 14°C
Fuktighet 72%
Tryck 1013 hPa
Sikt 10 km eller mer
Spridda moln på en höjd av 2000 ft, Cumulonimbus.
lätta regnskurar

METAR: USCC 201430Z 35004MPS 310V030 9999 -SHRA SCT020CB 14/09 Q1013 R27/190060 NOSIG RMK QFE739

Tid: 19:57 (14:57 UTC)

Väderprognos

Denna rapport gjordes för 57 minuter sedan, klockan 14:00 UTC
Prognos gäller från 20 kl. 15 UTC till 21 kl. 15 UTC
Vind 6 kt från nord/nordväst i byarna ända upp till 16 kt
Sikt 10 km eller mer
Spridda moln på en höjd av 3000 ft, Cumulonimbus.
Temporärt
från 20 kl. 15 UTC till 21 kl. 06 UTC
Sikt: 3100 m
Brutna moln på en höjd av 1100 ft, Cumulonimbus.
lätta regnskurar, fuktdis

TAF: USCC 201400Z 2015/2115 33003G08MPS 9999 SCT030CB TEMPO 2015/2106 3100 -SHRA BR BKN011CB

Aktuella väderrapporter och prognoser från 4000 flygplatser (METAR- och TAF-rapporter).

De tillgängliga stationerna syns som gula och röda prickar på kartan.

För musen över prickarna för att se namnen på stationerna.

Klicka sedan för att få väderrapporter och prognoser.

För att ändra kartan: Klicka på de gröna knapparna med ett svart kors på för att zooma in; den gröna knappen med ett streck på för att zooma ut; eller på de gröna pilarna för angränsande kartor.


METAR-TAF: